RYR4899 LIBD-LDDU
Flight info
| Callsign | RYR4899 |
|---|---|
| Flight time | 0h 29m |
| Altitude | 20000 |
| Route | BANAV DCT AIOSA |
| Aircraft | B738/M-SDE2E3FGHIRWXY/LB1 |
Departure
| Time | 2026-04-23 13:13 |
|---|---|
| Airport | Bari Karol Wojtyła International Airport (LIBD) |
Arrival
| Time | 2026-04-23 13:43 |
|---|---|
| Airport | Dubrovnik Ruđer Bošković Airport (LDDU) |
| Time | Latitude | Longitude | Altitude | Speed | Heading |
|---|---|---|---|---|---|
| 2026-04-23 12:46 | 41.13503 | 16.76233 | 151 ft | 0 kts | 158° |
| 2026-04-23 13:06 | 41.13509 | 16.76230 | 151 ft | 2 kts | 158° |
| 2026-04-23 13:06 | 41.13525 | 16.76222 | 152 ft | 2 kts | 159° |
| 2026-04-23 13:07 | 41.13540 | 16.76214 | 152 ft | 2 kts | 159° |
| 2026-04-23 13:07 | 41.13555 | 16.76205 | 152 ft | 2 kts | 131° |
| 2026-04-23 13:07 | 41.13560 | 16.76190 | 152 ft | 1 kts | 73° |
| 2026-04-23 13:07 | 41.13559 | 16.76186 | 152 ft | 0 kts | 70° |
| 2026-04-23 13:09 | 41.13560 | 16.76186 | 152 ft | 1 kts | 70° |
| 2026-04-23 13:09 | 41.13574 | 16.76213 | 151 ft | 5 kts | 32° |
| 2026-04-23 13:10 | 41.13602 | 16.76205 | 151 ft | 4 kts | 321° |
| 2026-04-23 13:10 | 41.13616 | 16.76141 | 152 ft | 10 kts | 242° |
| 2026-04-23 13:10 | 41.13613 | 16.76052 | 154 ft | 11 kts | 308° |
| 2026-04-23 13:10 | 41.13628 | 16.75935 | 159 ft | 15 kts | 254° |
| 2026-04-23 13:11 | 41.13589 | 16.75793 | 163 ft | 18 kts | 249° |
| 2026-04-23 13:11 | 41.13538 | 16.75616 | 166 ft | 22 kts | 249° |
| 2026-04-23 13:11 | 41.13480 | 16.75414 | 169 ft | 25 kts | 250° |
| 2026-04-23 13:11 | 41.13418 | 16.75196 | 174 ft | 24 kts | 249° |
| 2026-04-23 13:12 | 41.13361 | 16.74994 | 180 ft | 23 kts | 249° |
| 2026-04-23 13:12 | 41.13368 | 16.74831 | 183 ft | 18 kts | 300° |
| 2026-04-23 13:12 | 41.13457 | 16.74740 | 182 ft | 17 kts | 16° |
| 2026-04-23 13:12 | 41.13520 | 16.74885 | 177 ft | 29 kts | 69° |
| 2026-04-23 13:13 | 41.13699 | 16.75514 | 167 ft | 114 kts | 70° |
| 2026-04-23 13:13 | 41.14078 | 16.76785 | 205 ft | 178 kts | 65° |
| 2026-04-23 13:13 | 41.14494 | 16.78356 | 1179 ft | 182 kts | 66° |
| 2026-04-23 13:13 | 41.14912 | 16.79957 | 2327 ft | 180 kts | 64° |
| 2026-04-23 13:14 | 41.15382 | 16.81548 | 3001 ft | 197 kts | 63° |
| 2026-04-23 13:14 | 41.15918 | 16.83333 | 3233 ft | 222 kts | 64° |
| 2026-04-23 13:14 | 41.16486 | 16.85285 | 3817 ft | 228 kts | 64° |
| 2026-04-23 13:14 | 41.17070 | 16.87309 | 4426 ft | 238 kts | 65° |
| 2026-04-23 13:15 | 41.17669 | 16.89374 | 5195 ft | 243 kts | 62° |
| 2026-04-23 13:15 | 41.18653 | 16.91151 | 6112 ft | 239 kts | 37° |
| 2026-04-23 13:15 | 41.20139 | 16.92161 | 6909 ft | 244 kts | 15° |
| 2026-04-23 13:15 | 41.21850 | 16.92281 | 7601 ft | 255 kts | 353° |
| 2026-04-23 13:16 | 41.23596 | 16.91736 | 8435 ft | 259 kts | 347° |
| 2026-04-23 13:16 | 41.25331 | 16.91064 | 9219 ft | 265 kts | 346° |
| 2026-04-23 13:16 | 41.27113 | 16.90377 | 9979 ft | 270 kts | 346° |
| 2026-04-23 13:16 | 41.28966 | 16.89680 | 10574 ft | 282 kts | 347° |
| 2026-04-23 13:17 | 41.30922 | 16.88958 | 10765 ft | 307 kts | 346° |
| 2026-04-23 13:17 | 41.33052 | 16.88172 | 11200 ft | 322 kts | 347° |
| 2026-04-23 13:17 | 41.35233 | 16.87371 | 11870 ft | 328 kts | 347° |
| 2026-04-23 13:17 | 41.37465 | 16.86761 | 12716 ft | 328 kts | 359° |
| 2026-04-23 13:18 | 41.39707 | 16.87116 | 13516 ft | 329 kts | 17° |
| 2026-04-23 13:18 | 41.41888 | 16.88117 | 14330 ft | 331 kts | 21° |
| 2026-04-23 13:18 | 41.44025 | 16.89190 | 15248 ft | 329 kts | 22° |
| 2026-04-23 13:18 | 41.46154 | 16.90258 | 16305 ft | 324 kts | 22° |
| 2026-04-23 13:19 | 41.48275 | 16.91298 | 17379 ft | 319 kts | 22° |
| 2026-04-23 13:19 | 41.50331 | 16.92293 | 18383 ft | 316 kts | 22° |
| 2026-04-23 13:19 | 41.52396 | 16.93287 | 19259 ft | 313 kts | 23° |
| 2026-04-23 13:19 | 41.54477 | 16.94201 | 19816 ft | 314 kts | 20° |
| 2026-04-23 13:20 | 41.56583 | 16.94995 | 20106 ft | 313 kts | 20° |
| 2026-04-23 13:20 | 41.58656 | 16.95750 | 20110 ft | 312 kts | 19° |
| 2026-04-23 13:20 | 41.60758 | 16.96520 | 20122 ft | 313 kts | 20° |
| 2026-04-23 13:20 | 41.62868 | 16.97304 | 20132 ft | 314 kts | 20° |
| 2026-04-23 13:21 | 41.64966 | 16.98091 | 20134 ft | 315 kts | 20° |
| 2026-04-23 13:21 | 41.67082 | 16.98891 | 20127 ft | 315 kts | 20° |
| 2026-04-23 13:21 | 41.69181 | 16.99686 | 20128 ft | 316 kts | 20° |
| 2026-04-23 13:21 | 41.71303 | 17.00492 | 20123 ft | 315 kts | 20° |
| 2026-04-23 13:22 | 41.73294 | 17.01635 | 20115 ft | 309 kts | 36° |
| 2026-04-23 13:22 | 41.74976 | 17.03406 | 20121 ft | 306 kts | 43° |
| 2026-04-23 13:22 | 41.76548 | 17.05280 | 20113 ft | 306 kts | 44° |
| 2026-04-23 13:22 | 41.78128 | 17.07205 | 20115 ft | 305 kts | 44° |
| 2026-04-23 13:23 | 41.79707 | 17.09123 | 20117 ft | 305 kts | 44° |
| 2026-04-23 13:23 | 41.81292 | 17.11036 | 20113 ft | 305 kts | 44° |
| 2026-04-23 13:23 | 41.82856 | 17.12913 | 20114 ft | 305 kts | 43° |
| 2026-04-23 13:23 | 41.84449 | 17.14820 | 20110 ft | 305 kts | 43° |
| 2026-04-23 13:24 | 41.86025 | 17.16704 | 20113 ft | 305 kts | 43° |
| 2026-04-23 13:24 | 41.87614 | 17.18600 | 20112 ft | 306 kts | 43° |
| 2026-04-23 13:24 | 41.89211 | 17.20508 | 20107 ft | 306 kts | 43° |
| 2026-04-23 13:24 | 41.90797 | 17.22402 | 20110 ft | 306 kts | 43° |
| 2026-04-23 13:25 | 41.92397 | 17.24314 | 20112 ft | 306 kts | 43° |
| 2026-04-23 13:25 | 41.93968 | 17.26237 | 20103 ft | 306 kts | 44° |
| 2026-04-23 13:25 | 41.95503 | 17.28182 | 20104 ft | 306 kts | 45° |
| 2026-04-23 13:25 | 41.97055 | 17.30167 | 20107 ft | 306 kts | 45° |
| 2026-04-23 13:26 | 41.98583 | 17.32125 | 20106 ft | 305 kts | 45° |
| 2026-04-23 13:26 | 42.00128 | 17.34104 | 19507 ft | 312 kts | 45° |
| 2026-04-23 13:26 | 42.01699 | 17.36116 | 18923 ft | 317 kts | 45° |
| 2026-04-23 13:26 | 42.03305 | 17.38171 | 18393 ft | 319 kts | 44° |
| 2026-04-23 13:27 | 42.04929 | 17.40248 | 17891 ft | 319 kts | 44° |
| 2026-04-23 13:27 | 42.06518 | 17.42280 | 17374 ft | 318 kts | 44° |
| 2026-04-23 13:27 | 42.08132 | 17.44345 | 16887 ft | 318 kts | 44° |
| 2026-04-23 13:27 | 42.09721 | 17.46380 | 16401 ft | 318 kts | 44° |
| 2026-04-23 13:28 | 42.11334 | 17.48447 | 15888 ft | 318 kts | 44° |
| 2026-04-23 13:28 | 42.12925 | 17.50486 | 15387 ft | 318 kts | 44° |
| 2026-04-23 13:28 | 42.14538 | 17.52556 | 14923 ft | 318 kts | 44° |
| 2026-04-23 13:28 | 42.16125 | 17.54593 | 14500 ft | 316 kts | 44° |
| 2026-04-23 13:29 | 42.17721 | 17.56644 | 14068 ft | 314 kts | 44° |
| 2026-04-23 13:29 | 42.19305 | 17.58681 | 13618 ft | 313 kts | 44° |
| 2026-04-23 13:29 | 42.20865 | 17.60688 | 13171 ft | 311 kts | 44° |
| 2026-04-23 13:29 | 42.22434 | 17.62709 | 12740 ft | 309 kts | 44° |
| 2026-04-23 13:30 | 42.23969 | 17.64688 | 12326 ft | 306 kts | 44° |
| 2026-04-23 13:30 | 42.25512 | 17.66678 | 11917 ft | 304 kts | 44° |
| 2026-04-23 13:30 | 42.27022 | 17.68627 | 11515 ft | 302 kts | 44° |
| 2026-04-23 13:30 | 42.28542 | 17.70590 | 11111 ft | 300 kts | 44° |
| 2026-04-23 13:31 | 42.30035 | 17.72520 | 10720 ft | 298 kts | 43° |
| 2026-04-23 13:31 | 42.31509 | 17.74425 | 10599 ft | 286 kts | 43° |
| 2026-04-23 13:31 | 42.32930 | 17.76265 | 10456 ft | 277 kts | 43° |
| 2026-04-23 13:31 | 42.34289 | 17.78027 | 10333 ft | 268 kts | 44° |
| 2026-04-23 13:32 | 42.35337 | 17.80056 | 10203 ft | 261 kts | 63° |
| 2026-04-23 13:32 | 42.35814 | 17.82381 | 10069 ft | 257 kts | 75° |
| 2026-04-23 13:32 | 42.36145 | 17.84769 | 9749 ft | 256 kts | 76° |
| 2026-04-23 13:32 | 42.36457 | 17.87111 | 9461 ft | 254 kts | 76° |
| 2026-04-23 13:33 | 42.36769 | 17.89466 | 9179 ft | 252 kts | 76° |
| 2026-04-23 13:33 | 42.37081 | 17.91808 | 8896 ft | 250 kts | 76° |
| 2026-04-23 13:33 | 42.37387 | 17.94089 | 8613 ft | 249 kts | 76° |
| 2026-04-23 13:33 | 42.37699 | 17.96400 | 8345 ft | 247 kts | 76° |
| 2026-04-23 13:34 | 42.38005 | 17.98659 | 8080 ft | 245 kts | 76° |
| 2026-04-23 13:34 | 42.38314 | 18.00939 | 7806 ft | 244 kts | 76° |
| 2026-04-23 13:34 | 42.38616 | 18.03172 | 7545 ft | 243 kts | 76° |
| 2026-04-23 13:34 | 42.38921 | 18.05424 | 7279 ft | 241 kts | 76° |
| 2026-04-23 13:35 | 42.39219 | 18.07632 | 7014 ft | 241 kts | 76° |
| 2026-04-23 13:35 | 42.39521 | 18.09867 | 6737 ft | 240 kts | 76° |
| 2026-04-23 13:35 | 42.39822 | 18.12100 | 6466 ft | 240 kts | 76° |
| 2026-04-23 13:35 | 42.40121 | 18.14320 | 6184 ft | 239 kts | 76° |
| 2026-04-23 13:36 | 42.40415 | 18.16515 | 5926 ft | 238 kts | 76° |
| 2026-04-23 13:36 | 42.40713 | 18.18727 | 5674 ft | 236 kts | 76° |
| 2026-04-23 13:36 | 42.41001 | 18.20869 | 5576 ft | 228 kts | 76° |
| 2026-04-23 13:36 | 42.41281 | 18.22954 | 5463 ft | 221 kts | 76° |
| 2026-04-23 13:37 | 42.41551 | 18.24978 | 5367 ft | 214 kts | 76° |
| 2026-04-23 13:37 | 42.41811 | 18.26933 | 5276 ft | 213 kts | 76° |
| 2026-04-23 13:37 | 42.42078 | 18.28926 | 5191 ft | 215 kts | 76° |
| 2026-04-23 13:37 | 42.42047 | 18.30957 | 4924 ft | 225 kts | 109° |
| 2026-04-23 13:38 | 42.41149 | 18.32707 | 4726 ft | 224 kts | 120° |
| 2026-04-23 13:38 | 42.40759 | 18.34658 | 4415 ft | 215 kts | 80° |
| 2026-04-23 13:38 | 42.41279 | 18.36480 | 4185 ft | 207 kts | 49° |
| 2026-04-23 13:38 | 42.42351 | 18.37703 | 3943 ft | 204 kts | 24° |
| 2026-04-23 13:39 | 42.43711 | 18.38259 | 3727 ft | 204 kts | 11° |
| 2026-04-23 13:39 | 42.45128 | 18.38593 | 3495 ft | 208 kts | 9° |
| 2026-04-23 13:39 | 42.46561 | 18.38917 | 3253 ft | 207 kts | 8° |
| 2026-04-23 13:39 | 42.47956 | 18.39239 | 3023 ft | 201 kts | 9° |
| 2026-04-23 13:40 | 42.49315 | 18.39560 | 2748 ft | 194 kts | 9° |
| 2026-04-23 13:40 | 42.50622 | 18.39868 | 2515 ft | 191 kts | 7° |
| 2026-04-23 13:40 | 42.51886 | 18.39594 | 2294 ft | 183 kts | 321° |
| 2026-04-23 13:40 | 42.52468 | 18.38144 | 2310 ft | 184 kts | 284° |
| 2026-04-23 13:41 | 42.52807 | 18.36359 | 1921 ft | 196 kts | 289° |
| 2026-04-23 13:41 | 42.53255 | 18.34706 | 1717 ft | 180 kts | 294° |
| 2026-04-23 13:41 | 42.53748 | 18.33226 | 1542 ft | 164 kts | 296° |
| 2026-04-23 13:41 | 42.54244 | 18.31809 | 1237 ft | 167 kts | 295° |
| 2026-04-23 13:42 | 42.54718 | 18.30483 | 1038 ft | 149 kts | 296° |
| 2026-04-23 13:42 | 42.55174 | 18.29283 | 805 ft | 137 kts | 296° |
| 2026-04-23 13:42 | 42.55617 | 18.28150 | 535 ft | 135 kts | 297° |
| 2026-04-23 13:42 | 42.56016 | 18.27122 | 505 ft | 92 kts | 298° |
| 2026-04-23 13:43 | 42.56267 | 18.26490 | 511 ft | 45 kts | 300° |
| 2026-04-23 13:43 | 42.56338 | 18.26239 | 513 ft | 17 kts | 252° |
| 2026-04-23 13:43 | 42.56249 | 18.26235 | 512 ft | 9 kts | 165° |
| 2026-04-23 13:43 | 42.56212 | 18.26187 | 513 ft | 8 kts | 263° |
| 2026-04-23 13:44 | 42.56228 | 18.26119 | 513 ft | 6 kts | 294° |
| 2026-04-23 13:44 | 42.56229 | 18.26066 | 514 ft | 7 kts | 238° |
| 2026-04-23 13:44 | 42.56190 | 18.26035 | 514 ft | 4 kts | 207° |